PWSweather.com
Personal Weather Stations
Station Observations
CHKWX
Mesa Panagitsa, ChalkisGR 341 00

Mesa PanagitsaChalkisGR 341 00

Lat: 38.470143, Lon: 23.598348

Elevation: 30

Station Type: Oregon Scientific WMR100

Latest ConditionsUpdated 4:00:01 PM GMT+02:02 Monday, Jun 26, 2017
Currently Today's Max Today's Min Today's Average
Temperature 93.4°F34.1°C 93.9°F34.4°C 76.5°F24.7°C 82.0°F27.8°C
Dew Point 61.7°F16.5°C 73.2°F22.9°C 60.0°F15.6°C 67.9°F19.9°C
Winds 8.1 mph SSE13.0 kmh SSE 10.4 mph SSE16.7 kmh SSE - 1.1 mph 1.8 kmh
Wind Gusts 10.4 mph16.7 kmh 17.3 mph27.8 kmh - -
Humidity 35% 75% 35% 63%
Pressure 29.83 in1010.2 mb 29.89 in1012.2 mb 29.82 in1009.8 mb -
Hour Temp Dew Point Humidity Winds Wind Gusts Pressure Precip Precip Rate Daily Precip Total
04:00 PM 93.4°F34.1°C 61.7°F16.5°C 35% 8.1 mph SSE13.0 kmh SSE 10.4 mph16.7 kmh 29.83 in1010.2 mb - 0.00 in0.0 mm 0.00 in0.0 mm
03:50 PM 93.7°F34.3°C 62.7°F17.1°C 36% 10.4 mph SSE16.7 kmh SSE 17.3 mph27.8 kmh 29.82 in1009.8 mb - 0.00 in0.0 mm 0.00 in0.0 mm
03:40 PM 93.9°F34.4°C 62.1°F16.7°C 35% 8.1 mph SE13.0 kmh SE 12.7 mph20.4 kmh 29.82 in1009.8 mb - 0.00 in0.0 mm 0.00 in0.0 mm
03:30 PM 92.7°F33.7°C 61.9°F16.6°C 36% 3.5 mph SE5.6 kmh SE 8.1 mph13.0 kmh 29.82 in1009.8 mb - 0.00 in0.0 mm 0.00 in0.0 mm
03:20 PM 91.5°F33.1°C 60.0°F15.6°C 35% 2.3 mph SSW3.7 kmh SSW 8.1 mph13.0 kmh 29.83 in1010.2 mb - 0.00 in0.0 mm 0.00 in0.0 mm
03:10 PM 90.1°F32.3°C 69.0°F20.6°C 50% Calm Calm 2.3 mph3.7 kmh 29.83 in1010.2 mb - 0.00 in0.0 mm 0.00 in0.0 mm
03:00 PM 90.5°F32.5°C 71.6°F22.0°C 54% Calm Calm -- 29.83 in1010.2 mb - 0.00 in0.0 mm 0.00 in0.0 mm
02:50 PM 90.5°F32.5°C 72.1°F22.3°C 55% 1.2 mph N1.9 kmh N 2.3 mph3.7 kmh 29.83 in1010.2 mb - 0.00 in0.0 mm 0.00 in0.0 mm
02:40 PM 90.1°F32.3°C 70.1°F21.2°C 52% Calm Calm -- 29.83 in1010.2 mb - 0.00 in0.0 mm 0.00 in0.0 mm
02:30 PM 89.1°F31.7°C 70.8°F21.6°C 55% Calm Calm -- 29.84 in1010.5 mb - 0.00 in0.0 mm 0.00 in0.0 mm
02:20 PM 88.7°F31.5°C 72.0°F22.2°C 58% Calm Calm 2.3 mph3.7 kmh 29.84 in1010.5 mb - 0.00 in0.0 mm 0.00 in0.0 mm
02:10 PM 88.9°F31.6°C 71.7°F22.1°C 57% Calm Calm -- 29.84 in1010.5 mb - 0.00 in0.0 mm 0.00 in0.0 mm
02:00 PM 88.9°F31.6°C 73.2°F22.9°C 60% Calm Calm 2.3 mph3.7 kmh 29.84 in1010.5 mb - 0.00 in0.0 mm 0.00 in0.0 mm
01:50 PM 88.5°F31.4°C 71.8°F22.1°C 58% Calm Calm 2.3 mph3.7 kmh 29.85 in1010.8 mb - 0.00 in0.0 mm 0.00 in0.0 mm
01:40 PM 87.7°F30.9°C 69.0°F20.6°C 54% Calm Calm -- 29.84 in1010.5 mb - 0.00 in0.0 mm 0.00 in0.0 mm
01:30 PM 87.4°F30.8°C 70.8°F21.6°C 58% Calm Calm -- 29.84 in1010.5 mb - 0.00 in0.0 mm 0.00 in0.0 mm
01:20 PM 87.4°F30.8°C 71.3°F21.8°C 59% 1.2 mph NNW1.9 kmh NNW 4.6 mph7.4 kmh 29.85 in1010.8 mb - 0.00 in0.0 mm 0.00 in0.0 mm
01:10 PM 87.3°F30.7°C 72.7°F22.6°C 62% 1.2 mph N1.9 kmh N 2.3 mph3.7 kmh 29.85 in1010.8 mb - 0.00 in0.0 mm 0.00 in0.0 mm
01:00 PM 87.1°F30.6°C 73.0°F22.8°C 63% 2.3 mph NNW3.7 kmh NNW 4.6 mph7.4 kmh 29.85 in1010.8 mb - 0.00 in0.0 mm 0.00 in0.0 mm
12:50 PM 86.9°F30.5°C 72.3°F22.4°C 62% 1.2 mph N1.9 kmh N 4.6 mph7.4 kmh 29.85 in1010.8 mb - 0.00 in0.0 mm 0.00 in0.0 mm
12:40 PM 86.5°F30.3°C 72.4°F22.4°C 63% Calm Calm -- 29.85 in1010.8 mb - 0.00 in0.0 mm 0.00 in0.0 mm
12:30 PM 86.5°F30.3°C 72.9°F22.7°C 64% 1.2 mph N1.9 kmh N 4.6 mph7.4 kmh 29.85 in1010.8 mb - 0.00 in0.0 mm 0.00 in0.0 mm
12:20 PM 86.5°F30.3°C 72.4°F22.4°C 63% 1.2 mph NE1.9 kmh NE 4.6 mph7.4 kmh 29.86 in1011.2 mb - 0.00 in0.0 mm 0.00 in0.0 mm
12:10 PM 86.7°F30.4°C 72.6°F22.6°C 63% 4.6 mph S7.4 kmh S 8.1 mph13.0 kmh 29.86 in1011.2 mb - 0.00 in0.0 mm 0.00 in0.0 mm
12:00 PM 86.6°F30.3°C 72.0°F22.2°C 62% 1.2 mph NW1.9 kmh NW 4.6 mph7.4 kmh 29.86 in1011.2 mb - 0.00 in0.0 mm 0.00 in0.0 mm
11:50 AM 86.0°F30.0°C 70.0°F21.1°C 59% Calm Calm 2.3 mph3.7 kmh 29.86 in1011.2 mb - 0.00 in0.0 mm 0.00 in0.0 mm
11:40 AM 85.3°F29.6°C 71.7°F22.1°C 64% Calm Calm 2.3 mph3.7 kmh 29.86 in1011.2 mb - 0.00 in0.0 mm 0.00 in0.0 mm
11:30 AM 84.4°F29.1°C 70.4°F21.3°C 63% 1.2 mph N1.9 kmh N 2.3 mph3.7 kmh 29.86 in1011.2 mb - 0.00 in0.0 mm 0.00 in0.0 mm
11:20 AM 83.7°F28.7°C 70.2°F21.2°C 64% 1.2 mph WSW1.9 kmh WSW 2.3 mph3.7 kmh 29.87 in1011.5 mb - 0.00 in0.0 mm 0.00 in0.0 mm
11:10 AM 83.3°F28.5°C 70.3°F21.3°C 65% 2.3 mph N3.7 kmh N 4.6 mph7.4 kmh 29.86 in1011.2 mb - 0.00 in0.0 mm 0.00 in0.0 mm
11:00 AM 83.1°F28.4°C 70.1°F21.2°C 65% 2.3 mph N3.7 kmh N 4.6 mph7.4 kmh 29.86 in1011.2 mb - 0.00 in0.0 mm 0.00 in0.0 mm
10:50 AM 82.9°F28.3°C 69.5°F20.8°C 64% 2.3 mph N3.7 kmh N 4.6 mph7.4 kmh 29.86 in1011.2 mb - 0.00 in0.0 mm 0.00 in0.0 mm
10:40 AM 83.1°F28.4°C 70.6°F21.4°C 66% 2.3 mph N3.7 kmh N 4.6 mph7.4 kmh 29.87 in1011.5 mb - 0.00 in0.0 mm 0.00 in0.0 mm
10:30 AM 83.5°F28.6°C 70.9°F21.6°C 66% 3.5 mph NE5.6 kmh NE 4.6 mph7.4 kmh 29.87 in1011.5 mb - 0.00 in0.0 mm 0.00 in0.0 mm
10:20 AM 83.5°F28.6°C 69.6°F20.9°C 63% 1.2 mph N1.9 kmh N 2.3 mph3.7 kmh 29.87 in1011.5 mb - 0.00 in0.0 mm 0.00 in0.0 mm
10:10 AM 82.8°F28.2°C 68.0°F20.0°C 61% Calm Calm -- 29.87 in1011.5 mb - 0.00 in0.0 mm 0.00 in0.0 mm
10:00 AM 81.6°F27.6°C 67.3°F19.6°C 62% Calm Calm 2.3 mph3.7 kmh 29.87 in1011.5 mb - 0.00 in0.0 mm 0.00 in0.0 mm
09:50 AM 80.6°F27.0°C 68.6°F20.3°C 67% Calm Calm 2.3 mph3.7 kmh 29.87 in1011.5 mb - 0.00 in0.0 mm 0.00 in0.0 mm
09:40 AM 80.2°F26.8°C 69.5°F20.8°C 70% 2.3 mph NNE3.7 kmh NNE 4.6 mph7.4 kmh 29.87 in1011.5 mb - 0.00 in0.0 mm 0.00 in0.0 mm
09:30 AM 80.1°F26.7°C 69.8°F21.0°C 71% 3.5 mph N5.6 kmh N 4.6 mph7.4 kmh 29.87 in1011.5 mb - 0.00 in0.0 mm 0.00 in0.0 mm
09:20 AM 79.9°F26.6°C 69.7°F20.9°C 71% 3.5 mph N5.6 kmh N 8.1 mph13.0 kmh 29.87 in1011.5 mb - 0.00 in0.0 mm 0.00 in0.0 mm
09:10 AM 80.1°F26.7°C 69.8°F21.0°C 71% 3.5 mph NNE5.6 kmh NNE 4.6 mph7.4 kmh 29.87 in1011.5 mb - 0.00 in0.0 mm 0.00 in0.0 mm
09:00 AM 79.9°F26.6°C 68.8°F20.4°C 69% 2.3 mph NNE3.7 kmh NNE 4.6 mph7.4 kmh 29.88 in1011.9 mb - 0.00 in0.0 mm 0.00 in0.0 mm
08:50 AM 80.1°F26.7°C 69.4°F20.8°C 70% 3.5 mph NNE5.6 kmh NNE 4.6 mph7.4 kmh 29.88 in1011.9 mb - 0.00 in0.0 mm 0.00 in0.0 mm
08:40 AM 80.3°F26.8°C 69.6°F20.9°C 70% 2.3 mph N3.7 kmh N 4.6 mph7.4 kmh 29.88 in1011.9 mb - 0.00 in0.0 mm 0.00 in0.0 mm
08:30 AM 80.2°F26.8°C 69.1°F20.6°C 69% 1.2 mph N1.9 kmh N 4.6 mph7.4 kmh 29.87 in1011.5 mb - 0.00 in0.0 mm 0.00 in0.0 mm
08:20 AM 80.1°F26.7°C 67.7°F19.8°C 66% 2.3 mph N3.7 kmh N 4.6 mph7.4 kmh 29.88 in1011.9 mb - 0.00 in0.0 mm 0.00 in0.0 mm
08:10 AM 79.3°F26.3°C 68.3°F20.2°C 69% Calm Calm 2.3 mph3.7 kmh 29.88 in1011.9 mb - 0.00 in0.0 mm 0.00 in0.0 mm
08:00 AM 79.2°F26.2°C 68.1°F20.1°C 69% 1.2 mph NNE1.9 kmh NNE 4.6 mph7.4 kmh 29.88 in1011.9 mb - 0.00 in0.0 mm 0.00 in0.0 mm
07:50 AM 78.8°F26.0°C 66.9°F19.4°C 67% 1.2 mph N1.9 kmh N 4.6 mph7.4 kmh 29.88 in1011.9 mb - 0.00 in0.0 mm 0.00 in0.0 mm
07:40 AM 78.8°F26.0°C 66.9°F19.4°C 67% 2.3 mph NE3.7 kmh NE 4.6 mph7.4 kmh 29.88 in1011.9 mb - 0.00 in0.0 mm 0.00 in0.0 mm
07:30 AM 78.4°F25.8°C 67.0°F19.4°C 68% Calm Calm -- 29.88 in1011.9 mb - 0.00 in0.0 mm 0.00 in0.0 mm
07:20 AM 78.1°F25.6°C 66.2°F19.0°C 67% 1.2 mph N1.9 kmh N 2.3 mph3.7 kmh 29.88 in1011.9 mb - 0.00 in0.0 mm 0.00 in0.0 mm
07:10 AM 77.5°F25.3°C 67.4°F19.7°C 71% 2.3 mph N3.7 kmh N 4.6 mph7.4 kmh 29.88 in1011.9 mb - 0.00 in0.0 mm 0.00 in0.0 mm
07:00 AM 77.5°F25.3°C 67.4°F19.7°C 71% 3.5 mph N5.6 kmh N 4.6 mph7.4 kmh 29.88 in1011.9 mb - 0.00 in0.0 mm 0.00 in0.0 mm
06:50 AM 77.5°F25.3°C 68.2°F20.1°C 73% 2.3 mph N3.7 kmh N 4.6 mph7.4 kmh 29.88 in1011.9 mb - 0.00 in0.0 mm 0.00 in0.0 mm
06:40 AM 77.5°F25.3°C 68.6°F20.3°C 74% 2.3 mph NNW3.7 kmh NNW 4.6 mph7.4 kmh 29.87 in1011.5 mb - 0.00 in0.0 mm 0.00 in0.0 mm
06:30 AM 77.2°F25.1°C 68.3°F20.2°C 74% Calm Calm 2.3 mph3.7 kmh 29.87 in1011.5 mb - 0.00 in0.0 mm 0.00 in0.0 mm
06:20 AM 77.1°F25.1°C 68.5°F20.3°C 75% 2.3 mph N3.7 kmh N 2.3 mph3.7 kmh 29.87 in1011.5 mb - 0.00 in0.0 mm 0.00 in0.0 mm
06:10 AM 77.0°F25.0°C 68.1°F20.1°C 74% Calm Calm 2.3 mph3.7 kmh 29.87 in1011.5 mb - 0.00 in0.0 mm 0.00 in0.0 mm
06:00 AM 76.9°F24.9°C 67.6°F19.8°C 73% Calm Calm -- 29.87 in1011.5 mb - 0.00 in0.0 mm 0.00 in0.0 mm
05:50 AM 76.8°F24.9°C 67.1°F19.5°C 72% Calm Calm -- 29.86 in1011.2 mb - 0.00 in0.0 mm 0.00 in0.0 mm
05:40 AM 76.6°F24.8°C 66.9°F19.4°C 72% Calm Calm -- 29.87 in1011.5 mb - 0.00 in0.0 mm 0.00 in0.0 mm
05:30 AM 76.8°F24.9°C 66.3°F19.1°C 70% Calm Calm -- 29.86 in1011.2 mb - 0.00 in0.0 mm 0.00 in0.0 mm
05:20 AM 76.8°F24.9°C 65.9°F18.8°C 69% Calm Calm -- 29.87 in1011.5 mb - 0.00 in0.0 mm 0.00 in0.0 mm
05:10 AM 76.8°F24.9°C 65.4°F18.6°C 68% Calm Calm -- 29.87 in1011.5 mb - 0.00 in0.0 mm 0.00 in0.0 mm
05:00 AM 76.8°F24.9°C 65.0°F18.3°C 67% Calm Calm -- 29.87 in1011.5 mb - 0.00 in0.0 mm 0.00 in0.0 mm
04:50 AM 76.8°F24.9°C 64.6°F18.1°C 66% Calm Calm -- 29.87 in1011.5 mb - 0.00 in0.0 mm 0.00 in0.0 mm
04:40 AM 76.8°F24.9°C 64.1°F17.8°C 65% Calm Calm -- 29.87 in1011.5 mb - 0.00 in0.0 mm 0.00 in0.0 mm
04:30 AM 76.6°F24.8°C 63.1°F17.3°C 63% Calm Calm -- 29.87 in1011.5 mb - 0.00 in0.0 mm 0.00 in0.0 mm
04:20 AM 76.5°F24.7°C 63.9°F17.7°C 65% Calm Calm -- 29.87 in1011.5 mb - 0.00 in0.0 mm 0.00 in0.0 mm
04:10 AM 76.6°F24.8°C 67.3°F19.6°C 73% Calm Calm -- 29.87 in1011.5 mb - 0.00 in0.0 mm 0.00 in0.0 mm
04:00 AM 76.8°F24.9°C 67.9°F19.9°C 74% Calm Calm -- 29.87 in1011.5 mb - 0.00 in0.0 mm 0.00 in0.0 mm
03:50 AM 77.2°F25.1°C 68.3°F20.2°C 74% Calm Calm -- 29.87 in1011.5 mb - 0.00 in0.0 mm 0.00 in0.0 mm
03:40 AM 77.7°F25.4°C 67.1°F19.5°C 70% Calm Calm -- 29.87 in1011.5 mb - 0.00 in0.0 mm 0.00 in0.0 mm
03:30 AM 78.1°F25.6°C 66.7°F19.3°C 68% Calm Calm -- 29.87 in1011.5 mb - 0.00 in0.0 mm 0.00 in0.0 mm
03:20 AM 78.3°F25.7°C 64.2°F17.9°C 62% Calm Calm -- 29.87 in1011.5 mb - 0.00 in0.0 mm 0.00 in0.0 mm
03:10 AM 78.4°F25.8°C 64.3°F17.9°C 62% Calm Calm -- 29.88 in1011.9 mb - 0.00 in0.0 mm 0.00 in0.0 mm
03:00 AM 78.4°F25.8°C 64.3°F17.9°C 62% Calm Calm -- 29.87 in1011.5 mb - 0.00 in0.0 mm 0.00 in0.0 mm
02:50 AM 78.6°F25.9°C 64.9°F18.3°C 63% Calm Calm -- 29.87 in1011.5 mb - 0.00 in0.0 mm 0.00 in0.0 mm
02:40 AM 78.6°F25.9°C 65.4°F18.6°C 64% Calm Calm -- 29.87 in1011.5 mb - 0.00 in0.0 mm 0.00 in0.0 mm
02:30 AM 78.8°F26.0°C 65.6°F18.7°C 64% 1.2 mph SSE1.9 kmh SSE 2.3 mph3.7 kmh 29.87 in1011.5 mb - 0.00 in0.0 mm 0.00 in0.0 mm
02:20 AM 79.0°F26.1°C 65.8°F18.8°C 64% Calm Calm 2.3 mph3.7 kmh 29.88 in1011.9 mb - 0.00 in0.0 mm 0.00 in0.0 mm
02:10 AM 79.0°F26.1°C 65.3°F18.5°C 63% Calm Calm 2.3 mph3.7 kmh 29.87 in1011.5 mb - 0.00 in0.0 mm 0.00 in0.0 mm
02:00 AM 79.2°F26.2°C 65.1°F18.4°C 62% Calm Calm -- 29.88 in1011.9 mb - 0.00 in0.0 mm 0.00 in0.0 mm
01:50 AM 79.2°F26.2°C 65.1°F18.4°C 62% Calm Calm 2.3 mph3.7 kmh 29.88 in1011.9 mb - 0.00 in0.0 mm 0.00 in0.0 mm
01:40 AM 79.2°F26.2°C 66.0°F18.9°C 64% Calm Calm -- 29.88 in1011.9 mb - 0.00 in0.0 mm 0.00 in0.0 mm
01:30 AM 79.3°F26.3°C 65.6°F18.7°C 63% Calm Calm -- 29.88 in1011.9 mb - 0.00 in0.0 mm 0.00 in0.0 mm
01:20 AM 79.5°F26.4°C 67.1°F19.5°C 66% Calm Calm -- 29.88 in1011.9 mb - 0.00 in0.0 mm 0.00 in0.0 mm
01:10 AM 79.9°F26.6°C 66.6°F19.2°C 64% Calm Calm -- 29.88 in1011.9 mb - 0.00 in0.0 mm 0.00 in0.0 mm
01:00 AM 80.2°F26.8°C 66.4°F19.1°C 63% Calm Calm -- 29.88 in1011.9 mb - 0.00 in0.0 mm 0.00 in0.0 mm
12:50 AM 80.6°F27.0°C 66.8°F19.3°C 63% Calm Calm -- 29.88 in1011.9 mb - 0.00 in0.0 mm 0.00 in0.0 mm
12:40 AM 81.3°F27.4°C 66.6°F19.2°C 61% Calm Calm -- 29.88 in1011.9 mb - 0.00 in0.0 mm 0.00 in0.0 mm
12:30 AM 81.9°F27.7°C 65.7°F18.7°C 58% Calm Calm -- 29.88 in1011.9 mb - 0.00 in0.0 mm 0.00 in0.0 mm
12:20 AM 82.2°F27.9°C 66.4°F19.1°C 59% Calm Calm -- 29.88 in1011.9 mb - 0.00 in0.0 mm 0.00 in0.0 mm
12:10 AM 82.4°F28.0°C 64.6°F18.1°C 55% Calm Calm -- 29.88 in1011.9 mb - 0.00 in0.0 mm 0.00 in0.0 mm
12:00 AM 82.4°F28.0°C 64.6°F18.1°C 55% Calm Calm -- 29.89 in1012.2 mb - 0.00 in0.0 mm 0.00 in0.0 mm